createdAt,value
2018-04-07T04:46:51.857Z,5.80
2018-04-07T04:49:23.762Z,5.47
2018-04-07T04:51:55.639Z,5.77
2018-04-07T04:54:27.525Z,5.37
2018-04-07T04:56:59.402Z,6.00
2018-04-07T04:59:31.274Z,5.33
2018-04-07T05:02:03.173Z,5.37
2018-04-07T05:04:35.044Z,5.47
2018-04-07T05:07:06.936Z,6.00
2018-04-07T05:09:38.819Z,5.57
2018-04-07T05:12:10.717Z,5.70
2018-04-07T05:14:42.609Z,5.70
2018-04-07T05:17:14.497Z,5.63
2018-04-07T05:19:46.363Z,5.50
2018-04-07T05:22:19.053Z,5.70
2018-04-07T05:24:50.904Z,5.30
2018-04-07T05:27:23.577Z,6.00
2018-04-07T05:29:56.236Z,5.63
2018-04-07T05:32:28.130Z,5.00
2018-04-07T05:35:00.768Z,5.10
2018-04-07T05:37:32.672Z,5.97
2018-04-07T05:40:05.307Z,5.07
2018-04-07T05:42:37.216Z,5.20
2018-04-07T05:45:09.385Z,5.40
2018-04-07T05:47:41.551Z,5.33
2018-04-07T05:50:13.431Z,5.10
2018-04-07T05:52:45.331Z,5.17
2018-04-07T05:55:17.539Z,5.70
2018-04-07T05:57:49.440Z,5.27
2018-04-07T06:00:21.326Z,6.13
2018-04-07T06:02:53.231Z,5.53
2018-04-07T06:05:25.123Z,5.50
2018-04-07T06:07:57.247Z,5.40
2018-04-07T06:10:29.135Z,5.57
2018-04-07T06:13:01.031Z,5.10
2018-04-07T06:15:32.916Z,5.27
2018-04-07T06:18:05.572Z,5.53
2018-04-07T06:20:37.471Z,5.60
2018-04-07T06:23:09.368Z,5.87
2018-04-07T06:25:41.256Z,5.60
2018-04-07T06:28:13.157Z,5.63
2018-04-07T06:30:45.035Z,5.83
2018-04-07T06:33:16.935Z,5.23
2018-04-07T06:35:48.816Z,5.43
2018-04-07T06:38:21.495Z,5.43
2018-04-07T06:40:54.155Z,5.30
2018-04-07T06:43:26.053Z,6.33
2018-04-07T06:45:57.944Z,5.50
2018-04-07T06:48:29.854Z,5.60
2018-04-07T06:51:02.487Z,5.43
2018-04-07T06:53:34.391Z,5.27
2018-04-07T06:56:07.288Z,6.10
2018-04-07T06:58:39.455Z,5.43
2018-04-07T07:01:11.364Z,5.72
2018-04-07T07:03:43.583Z,5.77
2018-04-07T07:06:15.467Z,6.20
2018-04-07T07:08:47.357Z,5.85
2018-04-07T07:11:19.244Z,5.97
2018-04-07T07:13:51.916Z,5.70
2018-04-07T07:16:23.795Z,6.40
2018-04-07T07:18:57.040Z,6.33
2018-04-07T07:21:28.924Z,5.97
2018-04-07T07:24:01.402Z,6.00
2018-04-07T07:26:33.280Z,5.93
2018-04-07T07:29:05.939Z,6.30
2018-04-07T07:31:37.815Z,6.72
2018-04-07T07:34:10.496Z,7.95
2018-04-07T07:36:42.437Z,9.93
2018-04-07T07:39:14.309Z,7.10
2018-04-07T07:41:46.968Z,6.20
2018-04-07T07:44:18.873Z,6.20
2018-04-07T07:46:50.756Z,6.25
2018-04-07T07:49:22.659Z,6.22
2018-04-07T07:51:54.541Z,6.27
2018-04-07T07:54:26.455Z,6.70
2018-04-07T07:56:58.326Z,6.97
2018-04-07T07:59:30.221Z,7.33
2018-04-07T08:02:02.855Z,6.53
2018-04-07T08:04:34.759Z,6.97
2018-04-07T08:07:07.453Z,6.90
2018-04-07T08:09:40.075Z,6.60
2018-04-07T08:12:12.186Z,6.83
2018-04-07T08:14:44.109Z,7.20
2018-04-07T08:17:17.448Z,7.10
2018-04-07T08:19:49.615Z,6.87
2018-04-07T08:22:21.487Z,7.07
2018-04-07T08:24:53.642Z,6.30
2018-04-07T08:27:25.514Z,6.67
2018-04-07T08:29:57.411Z,7.27
2018-04-07T08:32:29.283Z,7.57
2018-04-07T08:35:01.175Z,8.50
2018-04-07T08:37:33.343Z,7.23
2018-04-07T08:40:05.264Z,7.27
2018-04-07T08:42:37.139Z,6.93
2018-04-07T08:45:09.804Z,6.63
2018-04-07T08:47:41.681Z,7.57
2018-04-07T08:50:14.355Z,7.23
2018-04-07T08:52:46.557Z,6.67
2018-04-07T08:55:18.719Z,7.50
2018-04-07T08:57:50.595Z,6.67
2018-04-07T09:00:22.487Z,7.03
2018-04-07T09:02:54.376Z,6.63
2018-04-07T09:05:27.042Z,6.77
2018-04-07T09:07:58.961Z,8.27
2018-04-07T09:10:31.587Z,7.27
2018-04-07T09:13:04.252Z,7.60
2018-04-07T09:15:36.156Z,7.77
2018-04-07T09:18:08.040Z,7.90
2018-04-07T09:20:39.935Z,7.93
2018-04-07T09:23:12.142Z,8.70
2018-04-07T09:25:44.035Z,7.87
2018-04-07T09:28:16.165Z,8.53
2018-04-07T09:30:48.077Z,8.23
2018-04-07T09:33:19.969Z,8.00
2018-04-07T09:35:52.645Z,8.10
2018-04-07T09:38:25.294Z,8.47
2018-04-07T09:40:57.188Z,8.67
2018-04-07T09:43:29.823Z,8.63
2018-04-07T09:46:01.720Z,8.73
2018-04-07T09:48:34.623Z,8.07
2018-04-07T09:51:06.527Z,8.10
2018-04-07T09:53:38.651Z,8.70
2018-04-07T09:56:10.564Z,8.57
2018-04-07T09:58:42.442Z,8.20
2018-04-07T10:01:14.334Z,9.60
2018-04-07T10:03:46.215Z,9.40
2018-04-07T10:06:18.124Z,9.07
2018-04-07T10:08:49.996Z,9.40
2018-04-07T10:11:22.676Z,9.20
2018-04-07T10:13:55.579Z,9.50
2018-04-07T10:16:27.479Z,8.67
2018-04-07T10:18:59.360Z,9.07
2018-04-07T10:21:31.262Z,9.03
2018-04-07T10:24:03.933Z,9.53
2018-04-07T10:26:35.824Z,9.07
2018-04-07T10:29:07.711Z,10.00
2018-04-07T10:31:39.620Z,8.93
2018-04-07T10:34:11.505Z,9.23
2018-04-07T10:36:43.404Z,9.63
2018-04-07T10:39:15.292Z,9.30
2018-04-07T10:41:48.285Z,9.67
2018-04-07T10:44:20.201Z,9.40
2018-04-07T10:46:52.412Z,8.50
2018-04-07T10:49:24.286Z,9.57
2018-04-07T10:51:56.192Z,8.57
2018-04-07T10:54:28.078Z,8.73
2018-04-07T10:57:00.739Z,8.43
2018-04-07T10:59:32.625Z,8.33
2018-04-07T11:02:05.284Z,9.20
2018-04-07T11:04:37.933Z,8.77
2018-04-07T11:07:10.051Z,8.00
2018-04-07T11:09:42.037Z,9.17
2018-04-07T11:12:13.929Z,9.10
2018-04-07T11:14:45.799Z,8.23
2018-04-07T11:17:17.730Z,8.20
2018-04-07T11:19:49.607Z,8.20
2018-04-07T11:22:21.503Z,8.67
2018-04-07T11:24:54.145Z,8.80
2018-04-07T11:27:26.047Z,8.50
2018-04-07T11:29:58.722Z,8.63
2018-04-07T11:32:30.818Z,8.87
2018-04-07T11:35:02.705Z,7.90
2018-04-07T11:37:34.618Z,8.83
2018-04-07T11:40:07.296Z,7.90
2018-04-07T11:42:39.979Z,7.13
2018-04-07T11:45:11.855Z,8.07
2018-04-07T11:47:44.005Z,8.03
2018-04-07T11:50:15.879Z,8.17
2018-04-07T11:52:47.770Z,8.47
2018-04-07T11:55:19.651Z,7.55
2018-04-07T11:57:51.851Z,7.45
2018-04-07T12:00:23.736Z,8.40
2018-04-07T12:02:55.640Z,7.73
2018-04-07T12:05:27.575Z,7.50
2018-04-07T12:07:59.486Z,6.97
2018-04-07T12:10:32.138Z,7.13
2018-04-07T12:13:04.029Z,7.25
2018-04-07T12:15:35.908Z,7.33
2018-04-07T12:18:07.828Z,7.30
2018-04-07T12:20:40.471Z,7.07
2018-04-07T12:23:13.137Z,7.73
2018-04-07T12:25:45.020Z,7.17
2018-04-07T12:28:16.926Z,6.57
2018-04-07T12:30:48.822Z,7.32
2018-04-07T12:33:20.731Z,7.30
2018-04-07T12:35:53.379Z,7.33
2018-04-07T12:38:25.277Z,7.00
2018-04-07T12:40:57.918Z,7.23
2018-04-07T12:43:29.894Z,7.37
2018-04-07T12:46:01.798Z,6.60
2018-04-07T12:48:33.697Z,7.27
2018-04-07T12:51:05.576Z,7.10
2018-04-07T12:53:37.532Z,7.18
2018-04-07T12:56:09.439Z,6.80
2018-04-07T12:58:41.343Z,6.72
2018-04-07T13:01:13.254Z,7.50
2018-04-07T13:03:45.163Z,7.00
2018-04-07T13:06:17.039Z,8.00
2018-04-07T13:08:48.939Z,8.13
2018-04-07T13:11:20.820Z,7.75
2018-04-07T13:13:52.963Z,7.55
2018-04-07T13:16:25.127Z,8.00
2018-04-07T13:18:57.816Z,7.03
2018-04-07T13:21:29.688Z,8.35
2018-04-07T13:24:01.609Z,8.60
2018-04-07T13:26:34.308Z,6.83
2018-04-07T13:29:06.190Z,7.30
2018-04-07T13:31:38.088Z,6.90
2018-04-07T13:34:10.266Z,7.53
2018-04-07T13:36:42.361Z,6.82
2018-04-07T13:39:14.263Z,6.70
2018-04-07T13:41:46.162Z,6.53
2018-04-07T13:44:18.112Z,6.87
2018-04-07T13:46:49.995Z,6.93
2018-04-07T13:49:22.655Z,8.15
2018-04-07T13:51:55.299Z,7.32
2018-04-07T13:54:27.199Z,7.82
2018-04-07T13:56:59.848Z,8.85
2018-04-07T13:59:31.761Z,7.82
2018-04-07T14:02:04.412Z,7.70
2018-04-07T14:04:37.071Z,6.90
2018-04-07T14:07:08.952Z,7.20
2018-04-07T14:09:41.639Z,18.83
2018-04-07T14:12:14.283Z,20.40
2018-04-07T14:14:46.175Z,13.00
2018-04-07T14:17:18.814Z,7.50
2018-04-07T14:19:50.720Z,7.55
2018-04-07T14:22:23.354Z,7.60
2018-04-07T14:24:55.264Z,6.62
2018-04-07T14:27:27.436Z,6.07
2018-04-07T14:29:59.366Z,6.60
2018-04-07T14:32:32.055Z,6.20
2018-04-07T14:35:04.718Z,8.70
2018-04-07T14:37:36.599Z,7.32
2018-04-07T14:40:09.271Z,5.87
2018-04-07T14:42:41.918Z,7.70
2018-04-07T14:45:13.832Z,7.15
2018-04-07T14:47:45.716Z,6.30
2018-04-07T14:50:17.632Z,6.68
2018-04-07T14:52:50.288Z,6.57
2018-04-07T14:55:22.200Z,5.95
2018-04-07T14:57:54.095Z,5.93
2018-04-07T15:00:25.990Z,5.65
2018-04-07T15:02:58.638Z,5.28
2018-04-07T15:05:30.556Z,5.57
2018-04-07T15:08:02.720Z,5.00
2018-04-07T15:10:34.887Z,5.05
2018-04-07T15:13:06.772Z,5.07
2018-04-07T15:15:38.680Z,5.47
2018-04-07T15:18:11.858Z,5.25
2018-04-07T15:20:43.743Z,4.85
2018-04-07T15:23:16.400Z,4.72
2018-04-07T15:25:48.293Z,4.90
2018-04-07T15:28:20.485Z,5.70
2018-04-07T15:30:52.377Z,4.60
2018-04-07T15:33:24.264Z,4.55
2018-04-07T15:35:56.931Z,4.93
2018-04-07T15:38:30.412Z,4.95
2018-04-07T15:41:02.308Z,4.85
2018-04-07T15:43:34.960Z,4.55
2018-04-07T15:46:06.855Z,4.07
2018-04-07T15:48:38.744Z,4.18
2018-04-07T15:51:10.662Z,4.05
2018-04-07T15:53:43.307Z,4.12
2018-04-07T15:56:15.221Z,4.35
2018-04-07T15:58:47.103Z,4.37
2018-04-07T16:01:19.010Z,3.90
2018-04-07T16:03:50.877Z,3.97
2018-04-07T16:06:23.907Z,3.80
2018-04-07T16:08:55.783Z,4.32
2018-04-07T16:11:27.916Z,4.15
2018-04-07T16:14:00.089Z,4.45
2018-04-07T16:16:31.983Z,3.83
2018-04-07T16:19:04.111Z,3.55
2018-04-07T16:21:36.277Z,4.50
2018-04-07T16:24:08.169Z,4.12
2018-04-07T16:26:40.068Z,4.03
2018-04-07T16:29:12.716Z,3.90
2018-04-07T16:31:44.603Z,3.87
2018-04-07T16:34:16.481Z,4.50
2018-04-07T16:36:49.161Z,3.83
2018-04-07T16:39:21.808Z,3.75
2018-04-07T16:41:53.720Z,3.75
2018-04-07T16:44:25.608Z,3.70
2018-04-07T16:46:57.494Z,3.67
2018-04-07T16:49:29.704Z,3.47
2018-04-07T16:52:01.596Z,3.45
2018-04-07T16:54:33.467Z,3.92
2018-04-07T16:57:05.695Z,3.67
2018-04-07T16:59:37.852Z,3.62
2018-04-07T17:02:09.967Z,3.83
2018-04-07T17:04:41.843Z,3.60
2018-04-07T17:07:13.749Z,3.20
2018-04-07T17:09:45.909Z,3.40
2018-04-07T17:12:17.820Z,4.07
2018-04-07T17:14:49.707Z,3.53
2018-04-07T17:17:22.379Z,3.70
2018-04-07T17:19:54.261Z,3.60
2018-04-07T17:22:26.181Z,4.25
2018-04-07T17:24:58.056Z,3.53
2018-04-07T17:27:30.032Z,3.55
2018-04-07T17:30:02.936Z,3.67
2018-04-07T17:32:34.848Z,3.67
2018-04-07T17:35:06.726Z,4.10
2018-04-07T17:37:39.400Z,3.92
2018-04-07T17:40:11.292Z,3.90
2018-04-07T17:42:43.184Z,3.83
2018-04-07T17:45:15.060Z,4.07
2018-04-07T17:47:46.946Z,3.58
2018-04-07T17:50:18.832Z,4.12
2018-04-07T17:52:50.724Z,3.70
2018-04-07T17:55:22.599Z,4.20
2018-04-07T17:57:54.495Z,3.97
2018-04-07T18:00:27.144Z,3.70
2018-04-07T18:02:59.036Z,3.85
2018-04-07T18:05:31.675Z,3.55
2018-04-07T18:08:03.590Z,3.37
2018-04-07T18:10:35.520Z,4.20
2018-04-07T18:13:08.182Z,4.18
2018-04-07T18:15:40.293Z,3.87
2018-04-07T18:18:12.204Z,4.20
2018-04-07T18:20:44.084Z,3.90
2018-04-07T18:23:15.979Z,3.70
2018-04-07T18:25:47.859Z,3.50
2018-04-07T18:28:19.750Z,3.67
2018-04-07T18:30:51.627Z,3.50
2018-04-07T18:33:23.533Z,3.60
2018-04-07T18:35:55.406Z,3.77
2018-04-07T18:38:27.295Z,3.93
2018-04-07T18:40:59.194Z,6.60
2018-04-07T18:43:31.103Z,4.80
2018-04-07T18:46:02.987Z,4.30
2018-04-07T18:48:34.888Z,4.40
2018-04-07T18:51:06.771Z,4.43
2018-04-07T18:53:38.663Z,3.97
2018-04-07T18:56:10.864Z,3.47
2018-04-07T18:58:42.772Z,3.67
2018-04-07T19:01:14.644Z,3.93
2018-04-07T19:03:46.851Z,3.77
2018-04-07T19:06:18.735Z,4.30
2018-04-07T19:08:50.618Z,3.97
2018-04-07T19:11:22.493Z,4.17
2018-04-07T19:13:54.389Z,4.27
2018-04-07T19:16:26.270Z,4.20
2018-04-07T19:18:58.167Z,4.60
2018-04-07T19:21:30.054Z,4.40
2018-04-07T19:24:02.703Z,4.63
2018-04-07T19:26:34.598Z,4.33
2018-04-07T19:29:06.516Z,4.40
2018-04-07T19:31:38.394Z,4.60
2018-04-07T19:34:10.296Z,4.30
2018-04-07T19:36:42.183Z,4.57
2018-04-07T19:39:14.084Z,4.13
2018-04-07T19:41:45.984Z,4.33
2018-04-07T19:44:17.935Z,4.90
2018-04-07T19:46:50.579Z,5.57
2018-04-07T19:49:22.475Z,4.83
2018-04-07T19:51:54.592Z,4.80
2018-04-07T19:54:26.506Z,5.30
2018-04-07T19:56:58.400Z,5.30
2018-04-07T19:59:30.300Z,5.40
2018-04-07T20:02:02.948Z,4.80
2018-04-07T20:04:34.951Z,6.10
2018-04-07T20:07:07.591Z,5.90
2018-04-07T20:09:39.484Z,5.60
2018-04-07T20:12:12.143Z,5.93
2018-04-07T20:14:44.348Z,6.20
2018-04-07T20:17:16.516Z,6.00
2018-04-07T20:19:48.407Z,6.60
2018-04-07T20:22:20.538Z,6.00
2018-04-07T20:24:52.436Z,6.00
2018-04-07T20:27:24.316Z,5.90
2018-04-07T20:29:56.272Z,6.27
2018-04-07T20:32:28.146Z,7.00
2018-04-07T20:35:00.035Z,7.47
2018-04-07T20:37:32.675Z,6.83
2018-04-07T20:40:04.567Z,7.57
2018-04-07T20:42:37.467Z,6.77
2018-04-07T20:45:09.368Z,7.10
2018-04-07T20:47:41.248Z,6.80
2018-04-07T20:50:13.150Z,6.83
2018-04-07T20:52:45.032Z,7.20
2018-04-07T20:55:17.175Z,7.10
2018-04-07T20:57:49.052Z,6.67
2018-04-07T21:00:20.964Z,7.37
2018-04-07T21:02:52.841Z,7.20
2018-04-07T21:05:25.521Z,7.10
2018-04-07T21:07:58.159Z,6.93
2018-04-07T21:10:30.048Z,6.73
2018-04-07T21:13:02.700Z,6.50
2018-04-07T21:15:34.615Z,6.23
2018-04-07T21:18:06.531Z,7.53
2018-04-07T21:20:38.431Z,8.07
2018-04-07T21:23:10.595Z,7.47
2018-04-07T21:25:42.500Z,7.40
2018-04-07T21:28:14.624Z,6.77
2018-04-07T21:30:46.533Z,7.03
2018-04-07T21:33:18.415Z,7.27
2018-04-07T21:35:50.304Z,7.00
2018-04-07T21:38:22.179Z,6.87
2018-04-07T21:40:54.099Z,6.73
2018-04-07T21:43:25.984Z,6.87
2018-04-07T21:45:57.895Z,6.87
2018-04-07T21:48:29.776Z,7.17
2018-04-07T21:51:01.682Z,7.03
2018-04-07T21:53:33.648Z,6.37
2018-04-07T21:56:05.897Z,6.33
2018-04-07T21:58:37.781Z,6.63
2018-04-07T22:01:09.667Z,6.73
2018-04-07T22:03:41.542Z,6.50
2018-04-07T22:06:13.555Z,6.97
2018-04-07T22:08:45.424Z,7.10
2018-04-07T22:11:17.339Z,6.90
2018-04-07T22:13:49.527Z,7.57
2018-04-07T22:16:21.427Z,7.37
2018-04-07T22:18:54.576Z,6.47
2018-04-07T22:21:26.744Z,6.93
